Terminal Aerodrome Forecast
Issued by NWS

Home | Current Version | Previous Version | Text Only | Print | Product List | Glossary On
Versions: 1 2 3 4 5 6 7 8 9 10 11 12 13 14 15 16 17 18 19 20 21 22 23 24 25 26 27 28 29 30 31 32 33 34 35 36 37 38 39 40 41 42 43 44 45 46
552
FTUS43 KLOT 111135
TAFGYY
TAF
KGYY 111135Z 1112/1212 17006KT P6SM BKN060 OVC080
     FM111800 18008KT P6SM VCSH BKN050 BKN100
     FM112200 VRB04KT P6SM SCT020 OVC050
     FM120200 33020G32KT P6SM -SHSN OVC025
      TEMPO 1202/1204 5SM -SHSN OVC015=

USA.gov is the U.S. government's official web portal to all federal, state and local government web resources and services.